createdAt,value
2019-04-06T00:00:13.922Z,100160.11
2019-04-06T00:02:25.059Z,100165.67
2019-04-06T00:04:32.466Z,100165.13
2019-04-06T00:06:39.995Z,100169.48
2019-04-06T00:08:47.316Z,100161.65
2019-04-06T00:10:55.319Z,100167.86
2019-04-06T00:13:02.795Z,100165.30
2019-04-06T00:15:10.522Z,100167.66
2019-04-06T00:17:17.962Z,100163.22
2019-04-06T00:19:25.436Z,100164.83
2019-04-06T00:21:32.877Z,100164.78
2019-04-06T00:23:40.341Z,100166.04
2019-04-06T00:25:47.782Z,100165.33
2019-04-06T00:27:55.212Z,100171.20
2019-04-06T00:30:02.553Z,100175.47
2019-04-06T00:32:14.600Z,100174.56
2019-04-06T00:34:22.001Z,100168.53
2019-04-06T00:36:29.424Z,100164.21
2019-04-06T00:38:36.909Z,100170.99
2019-04-06T00:40:44.348Z,100169.00
2019-04-06T00:42:51.782Z,100171.95
2019-04-06T00:44:59.147Z,100170.94
2019-04-06T00:47:06.559Z,100169.48
2019-04-06T00:49:13.938Z,100170.39
2019-04-06T00:51:21.296Z,100170.16
2019-04-06T00:53:28.734Z,100166.28
2019-04-06T00:55:36.093Z,100166.99
2019-04-06T00:57:43.573Z,100163.89
2019-04-06T00:59:50.993Z,100165.75
2019-04-06T01:01:58.467Z,100174.76
2019-04-06T01:04:05.934Z,100172.27
2019-04-06T01:06:13.329Z,100165.85
2019-04-06T01:08:20.725Z,100171.02
2019-04-06T01:10:28.206Z,100174.89
2019-04-06T01:12:35.577Z,100173.34
2019-04-06T01:14:43.018Z,100171.79
2019-04-06T01:16:50.420Z,100171.25
2019-04-06T01:18:57.887Z,100168.86
2019-04-06T01:21:05.247Z,100169.56
2019-04-06T01:23:12.757Z,100174.75
2019-04-06T01:25:20.181Z,100172.41
2019-04-06T01:27:27.490Z,100169.03
2019-04-06T01:29:34.863Z,100175.44
2019-04-06T01:31:42.226Z,100168.66
2019-04-06T01:33:49.613Z,100173.19
2019-04-06T01:35:56.958Z,100175.06
2019-04-06T01:38:04.309Z,100169.62
2019-04-06T01:40:11.826Z,100169.27
2019-04-06T01:42:19.228Z,100176.34
2019-04-06T01:44:26.645Z,100163.83
2019-04-06T01:46:33.980Z,100176.41
2019-04-06T01:48:41.400Z,100176.27
2019-04-06T01:50:48.716Z,100175.77
2019-04-06T01:52:56.107Z,100172.45
2019-04-06T01:55:03.503Z,100169.86
2019-04-06T01:57:10.953Z,100169.04
2019-04-06T01:59:18.435Z,100174.85
2019-04-06T02:01:39.934Z,100176.46
2019-04-06T02:03:47.311Z,100176.48
2019-04-06T02:05:54.927Z,100178.58
2019-04-06T02:08:02.542Z,100180.28
2019-04-06T02:10:10.277Z,100183.31
2019-04-06T02:12:17.624Z,100182.13
2019-04-06T02:14:25.150Z,100180.88
2019-04-06T02:16:32.546Z,100184.22
2019-04-06T02:18:40.027Z,100189.03
2019-04-06T02:20:47.415Z,100187.62
2019-04-06T02:22:54.825Z,100190.69
2019-04-06T02:25:02.199Z,100191.67
2019-04-06T02:27:09.532Z,100191.85
2019-04-06T02:29:17.010Z,100201.10
2019-04-06T02:31:42.010Z,100201.75
2019-04-06T02:34:07.914Z,100201.84
2019-04-06T02:36:43.278Z,100201.01
2019-04-06T02:39:24.870Z,100202.86
2019-04-06T02:42:03.373Z,100205.06
2019-04-06T02:44:10.800Z,100199.09
2019-04-06T02:46:18.146Z,100207.13
2019-04-06T02:48:25.520Z,100205.76
2019-04-06T02:50:32.889Z,100206.53
2019-04-06T02:52:40.256Z,100206.39
2019-04-06T02:54:47.615Z,100211.48
2019-04-06T02:56:55.083Z,100205.23
2019-04-06T02:59:02.458Z,100204.50
2019-04-06T03:01:09.893Z,100209.44
2019-04-06T03:03:17.463Z,100208.80
2019-04-06T03:05:24.807Z,100210.49
2019-04-06T03:07:32.417Z,100210.49
2019-04-06T03:09:39.758Z,100214.58
2019-04-06T03:11:47.189Z,100214.64
2019-04-06T03:13:54.572Z,100218.84
2019-04-06T03:16:02.041Z,100216.53
2019-04-06T03:18:09.770Z,100215.89
2019-04-06T03:20:17.431Z,100213.37
2019-04-06T03:22:25.039Z,100217.41
2019-04-06T03:24:32.439Z,100214.31
2019-04-06T03:26:39.981Z,100214.58
2019-04-06T03:28:47.591Z,100227.97
2019-04-06T03:30:55.992Z,100224.44
2019-04-06T03:33:03.735Z,100225.44
2019-04-06T03:35:11.650Z,100227.70
2019-04-06T03:37:20.014Z,100221.44
2019-04-06T03:39:27.367Z,100217.61
2019-04-06T03:41:34.713Z,100219.86
2019-04-06T03:43:42.158Z,100224.44
2019-04-06T03:45:49.556Z,100221.02
2019-04-06T03:47:57.006Z,100218.02
2019-04-06T03:50:04.745Z,100222.02
2019-04-06T03:52:12.265Z,100226.41
2019-04-06T03:54:19.711Z,100224.06
2019-04-06T03:56:27.150Z,100222.86
2019-04-06T03:58:34.498Z,100216.70
2019-04-06T04:00:41.905Z,100218.60
2019-04-06T04:02:49.327Z,100217.60
2019-04-06T04:04:56.701Z,100216.03
2019-04-06T04:07:04.156Z,100225.80
2019-04-06T04:09:11.740Z,100219.44
2019-04-06T04:11:19.227Z,100219.45
2019-04-06T04:13:26.595Z,100221.69
2019-04-06T04:15:34.216Z,100228.62
2019-04-06T04:17:41.686Z,100225.09
2019-04-06T04:19:49.112Z,100222.59
2019-04-06T04:21:57.430Z,100222.73
2019-04-06T04:24:04.962Z,100222.69
2019-04-06T04:26:12.460Z,100224.44
2019-04-06T04:28:19.859Z,100223.13
2019-04-06T04:30:32.892Z,100224.95
2019-04-06T04:32:36.542Z,100218.74
2019-04-06T04:34:44.045Z,100223.27
2019-04-06T04:36:51.510Z,100215.52
2019-04-06T04:38:58.909Z,100226.68
2019-04-06T04:41:06.424Z,100225.17
2019-04-06T04:43:13.842Z,100230.27
2019-04-06T04:45:21.247Z,100227.13
2019-04-06T04:47:28.871Z,100233.48
2019-04-06T04:49:36.284Z,100238.98
2019-04-06T04:51:43.818Z,100230.27
2019-04-06T04:53:51.322Z,100229.80
2019-04-06T04:55:58.863Z,100237.05
2019-04-06T04:58:06.227Z,100232.95
2019-04-06T05:00:14.643Z,100231.13
2019-04-06T05:02:22.438Z,100240.10
2019-04-06T05:04:29.977Z,100238.27
2019-04-06T05:06:37.392Z,100237.73
2019-04-06T05:08:44.797Z,100237.53
2019-04-06T05:10:52.190Z,100242.41
2019-04-06T05:12:59.616Z,100246.34
2019-04-06T05:15:11.631Z,100244.51
2019-04-06T05:17:19.000Z,100242.11
2019-04-06T05:19:26.385Z,100244.68
2019-04-06T05:21:33.763Z,100248.41
2019-04-06T05:23:41.374Z,100238.69
2019-04-06T05:25:48.758Z,100250.71
2019-04-06T05:27:56.289Z,100253.13
2019-04-06T05:30:03.744Z,100243.61
2019-04-06T05:32:11.276Z,100241.31
2019-04-06T05:34:18.672Z,100250.34
2019-04-06T05:36:26.107Z,100247.39
2019-04-06T05:38:33.456Z,100250.86
2019-04-06T05:40:40.874Z,100248.11
2019-04-06T05:42:48.373Z,100251.50
2019-04-06T05:44:55.890Z,100252.09
2019-04-06T05:47:03.286Z,100240.44
2019-04-06T05:49:10.787Z,100249.10
2019-04-06T05:51:18.178Z,100250.66
2019-04-06T05:53:25.599Z,100251.02
2019-04-06T05:55:33.136Z,100252.73
2019-04-06T05:57:40.682Z,100247.16
2019-04-06T05:59:48.162Z,100242.62
2019-04-06T06:01:55.553Z,100244.03
2019-04-06T06:04:02.971Z,100239.48
2019-04-06T06:06:12.655Z,100243.27
2019-04-06T06:08:19.921Z,100242.20
2019-04-06T06:10:27.366Z,100244.59
2019-04-06T06:12:34.873Z,100237.01
2019-04-06T06:14:42.356Z,100235.16
2019-04-06T06:16:50.160Z,100239.75
2019-04-06T06:18:57.833Z,100242.05
2019-04-06T06:21:05.488Z,100242.39
2019-04-06T06:23:13.126Z,100246.24
2019-04-06T06:25:20.665Z,100242.70
2019-04-06T06:27:28.341Z,100242.84
2019-04-06T06:29:35.872Z,100238.22
2019-04-06T06:31:43.880Z,100234.88
2019-04-06T06:33:51.348Z,100238.05
2019-04-06T06:35:58.831Z,100234.92
2019-04-06T06:38:06.536Z,100238.55
2019-04-06T06:40:14.963Z,100244.58
2019-04-06T06:42:22.352Z,100233.95
2019-04-06T06:44:29.771Z,100242.45
2019-04-06T06:46:37.349Z,100242.57
2019-04-06T06:48:44.829Z,100243.34
2019-04-06T06:50:52.235Z,100247.34
2019-04-06T06:53:00.004Z,100244.00
2019-04-06T06:55:08.035Z,100246.28
2019-04-06T06:57:15.459Z,100248.36
2019-04-06T06:59:23.111Z,100246.86
2019-04-06T07:01:30.690Z,100238.14
2019-04-06T07:03:38.244Z,100241.82
2019-04-06T07:05:45.886Z,100240.81
2019-04-06T07:07:53.300Z,100244.94
2019-04-06T07:10:05.738Z,100242.21
2019-04-06T07:12:09.942Z,100235.72
2019-04-06T07:14:17.451Z,100243.45
2019-04-06T07:16:24.974Z,100237.52
2019-04-06T07:18:32.444Z,100236.15
2019-04-06T07:20:39.969Z,100232.16
2019-04-06T07:22:47.691Z,100232.78
2019-04-06T07:24:55.293Z,100237.77
2019-04-06T07:27:02.717Z,100235.34
2019-04-06T07:29:11.225Z,100233.06
2019-04-06T07:31:18.701Z,100236.85
2019-04-06T07:33:26.155Z,100234.97
2019-04-06T07:35:33.635Z,100230.45
2019-04-06T07:37:41.055Z,100222.12
2019-04-06T07:39:48.506Z,100235.16
2019-04-06T07:41:55.897Z,100226.48
2019-04-06T07:44:05.663Z,100229.39
2019-04-06T07:46:12.990Z,100226.64
2019-04-06T07:48:20.389Z,100219.10
2019-04-06T07:50:27.916Z,100213.55
2019-04-06T07:52:35.430Z,100204.19
2019-04-06T07:54:42.945Z,100199.33
2019-04-06T07:56:51.207Z,100204.68
2019-04-06T07:58:58.760Z,100202.75
2019-04-06T08:01:06.449Z,100194.53
2019-04-06T08:03:13.920Z,100196.48
2019-04-06T08:05:21.889Z,100204.02
2019-04-06T08:07:29.294Z,100202.12
2019-04-06T08:09:36.796Z,100204.16
2019-04-06T08:11:45.120Z,100190.62
2019-04-06T08:13:52.592Z,100199.31
2019-04-06T08:16:00.077Z,100196.06
2019-04-06T08:18:07.750Z,100194.13
2019-04-06T08:20:15.491Z,100191.48
2019-04-06T08:22:22.917Z,100190.50
2019-04-06T08:24:30.473Z,100182.30
2019-04-06T08:26:38.020Z,100186.55
2019-04-06T08:28:45.470Z,100189.05
2019-04-06T08:30:52.997Z,100175.53
2019-04-06T08:33:00.846Z,100176.33
2019-04-06T08:35:09.166Z,100180.14
2019-04-06T08:37:17.065Z,100179.13
2019-04-06T08:39:25.823Z,100178.05
2019-04-06T08:41:33.532Z,100174.16
2019-04-06T08:43:41.058Z,100172.20
2019-04-06T08:45:48.802Z,100163.52
2019-04-06T08:47:56.568Z,100178.48
2019-04-06T08:50:04.788Z,100167.91
2019-04-06T08:52:12.422Z,100169.44
2019-04-06T08:54:20.099Z,100165.53
2019-04-06T08:56:27.697Z,100162.70
2019-04-06T08:58:35.191Z,100157.66
2019-04-06T09:00:42.746Z,100154.22
2019-04-06T09:02:50.248Z,100152.06
2019-04-06T09:04:57.881Z,100143.97
2019-04-06T09:07:05.410Z,100151.42
2019-04-06T09:09:13.255Z,100148.11
2019-04-06T09:11:20.879Z,100152.03
2019-04-06T09:13:28.444Z,100152.62
2019-04-06T09:15:36.120Z,100148.83
2019-04-06T09:17:43.703Z,100143.47
2019-04-06T09:19:51.305Z,100145.23
2019-04-06T09:21:58.789Z,100138.43
2019-04-06T09:24:06.411Z,100140.59
2019-04-06T09:26:13.854Z,100135.42
2019-04-06T09:28:21.533Z,100137.41
2019-04-06T09:30:29.387Z,100132.89
2019-04-06T09:32:37.034Z,100127.48
2019-04-06T09:34:44.758Z,100132.91
2019-04-06T09:36:52.248Z,100129.40
2019-04-06T09:38:59.935Z,100134.09
2019-04-06T09:41:07.453Z,100136.87
2019-04-06T09:43:15.781Z,100135.10
2019-04-06T09:45:43.284Z,100132.66
2019-04-06T09:48:02.078Z,100134.71
2019-04-06T09:50:25.668Z,100124.47
2019-04-06T09:52:39.621Z,100120.97
2019-04-06T09:54:55.498Z,100115.28
2019-04-06T09:57:20.600Z,100120.20
2019-04-06T09:59:47.952Z,100122.98
2019-04-06T10:02:11.412Z,100116.88
2019-04-06T10:04:36.434Z,100117.81
2019-04-06T10:06:54.122Z,100115.18
2019-04-06T10:09:13.059Z,100112.33
2019-04-06T10:11:28.560Z,100111.06
2019-04-06T10:13:53.741Z,100109.67
2019-04-06T10:16:25.832Z,100109.14
2019-04-06T10:18:52.246Z,100111.92
2019-04-06T10:21:27.597Z,100102.99
2019-04-06T10:23:52.611Z,100099.75
2019-04-06T10:26:18.691Z,100099.08
2019-04-06T10:28:36.099Z,100093.34
2019-04-06T10:31:12.648Z,100095.48
2019-04-06T10:33:27.706Z,100096.89
2019-04-06T10:35:51.829Z,100100.25
2019-04-06T10:38:24.083Z,100098.23
2019-04-06T10:40:49.071Z,100098.23
2019-04-06T10:43:17.605Z,100089.20
2019-04-06T10:45:55.994Z,100086.53
2019-04-06T10:48:28.030Z,100082.31
2019-04-06T10:50:53.315Z,100088.99
2019-04-06T10:53:25.518Z,100081.70
2019-04-06T10:55:54.793Z,100086.44
2019-04-06T10:58:27.057Z,100095.08
2019-04-06T11:00:53.711Z,100088.72
2019-04-06T11:03:19.938Z,100079.48
2019-04-06T11:05:46.046Z,100084.73
2019-04-06T11:08:08.456Z,100080.24
2019-04-06T11:10:33.619Z,100078.95
2019-04-06T11:13:12.392Z,100083.08
2019-04-06T11:15:38.508Z,100073.81
2019-04-06T11:18:04.629Z,100081.23
2019-04-06T11:20:29.950Z,100075.53
2019-04-06T11:22:55.190Z,100081.88
2019-04-06T11:25:27.247Z,100080.91
2019-04-06T11:27:53.310Z,100080.89
2019-04-06T11:30:22.521Z,100079.83
2019-04-06T11:32:45.486Z,100077.24
2019-04-06T11:35:14.621Z,100068.53
2019-04-06T11:37:32.721Z,100065.73
2019-04-06T11:39:58.487Z,100068.53
2019-04-06T11:42:37.000Z,100067.55
2019-04-06T11:45:03.123Z,100058.53
2019-04-06T11:47:25.675Z,100059.41
2019-04-06T11:49:54.836Z,100057.20
2019-04-06T11:52:13.772Z,100058.06
2019-04-06T11:54:42.967Z,100057.56
2019-04-06T11:57:04.769Z,100054.27
2019-04-06T11:59:29.579Z,100045.56
2019-04-06T12:01:47.327Z,100050.91
2019-04-06T12:04:00.831Z,100046.39
2019-04-06T12:06:25.827Z,100053.28
2019-04-06T12:08:52.905Z,100043.64
2019-04-06T12:11:21.992Z,100034.29
2019-04-06T12:13:44.395Z,100033.64
2019-04-06T12:16:15.630Z,100030.03
2019-04-06T12:18:45.868Z,100033.78
2019-04-06T12:21:15.067Z,100034.98
2019-04-06T12:23:40.261Z,100034.52
2019-04-06T12:25:56.963Z,100018.86
2019-04-06T12:28:25.956Z,100028.96
2019-04-06T12:31:01.583Z,100027.98
2019-04-06T12:33:27.667Z,100020.30
2019-04-06T12:35:53.797Z,100020.71
2019-04-06T12:38:24.780Z,100025.05
2019-04-06T12:40:49.967Z,100019.31
2019-04-06T12:43:19.256Z,100020.63
2019-04-06T12:45:54.780Z,100015.42
2019-04-06T12:48:18.870Z,100009.98
2019-04-06T12:50:51.478Z,100003.08
2019-04-06T12:53:22.765Z,100002.78
2019-04-06T12:55:48.889Z,100000.86
2019-04-06T12:58:34.002Z,99999.18
2019-04-06T13:00:59.355Z,99992.02
2019-04-06T13:03:13.174Z,100000.85
2019-04-06T13:05:36.272Z,99992.20
2019-04-06T13:08:17.771Z,99987.72
2019-04-06T13:10:30.373Z,99985.50
2019-04-06T13:13:02.691Z,99991.28
2019-04-06T13:15:38.343Z,99991.58
2019-04-06T13:18:10.677Z,99988.09
2019-04-06T13:20:43.290Z,99987.30
2019-04-06T13:23:27.835Z,99979.34
2019-04-06T13:25:46.242Z,99986.41
2019-04-06T13:28:06.399Z,99981.00
2019-04-06T13:30:33.038Z,99980.04
2019-04-06T13:33:02.257Z,99975.67
2019-04-06T13:35:25.902Z,99979.63
2019-04-06T13:37:40.327Z,99979.24
2019-04-06T13:40:15.884Z,99975.85
2019-04-06T13:42:45.094Z,99974.06
2019-04-06T13:45:02.079Z,99969.52
2019-04-06T13:47:34.635Z,99964.33
2019-04-06T13:49:50.364Z,99966.22
2019-04-06T13:52:23.180Z,99977.84
2019-04-06T13:54:48.696Z,99963.61
2019-04-06T13:57:24.581Z,99968.42
2019-04-06T13:59:57.227Z,99968.52
2019-04-06T14:02:23.480Z,99967.45
2019-04-06T14:04:40.993Z,99961.04
2019-04-06T14:07:00.360Z,99960.63
2019-04-06T14:09:28.300Z,99962.23
2019-04-06T14:12:00.877Z,99965.32
2019-04-06T14:14:26.075Z,99957.36
2019-04-06T14:16:55.410Z,99962.55
2019-04-06T14:19:14.641Z,99960.72
2019-04-06T14:21:41.032Z,99964.16
2019-04-06T14:24:10.189Z,99961.64
2019-04-06T14:26:42.478Z,99957.65
2019-04-06T14:29:10.133Z,99958.02
2019-04-06T14:31:29.041Z,99958.28
2019-04-06T14:33:54.175Z,99960.81
2019-04-06T14:36:23.369Z,99962.18
2019-04-06T14:38:52.507Z,99961.34
2019-04-06T14:41:25.166Z,99962.77
2019-04-06T14:43:51.349Z,99961.94
2019-04-06T14:46:33.037Z,99955.08
2019-04-06T14:49:22.554Z,99953.51
2019-04-06T14:51:51.206Z,99954.91
2019-04-06T14:54:08.922Z,99953.23
2019-04-06T14:56:53.554Z,99953.63
2019-04-06T14:59:18.573Z,99955.83
2019-04-06T15:01:41.215Z,99957.01
2019-04-06T15:03:55.015Z,99956.94
2019-04-06T15:06:30.687Z,99957.84
2019-04-06T15:09:01.023Z,99953.63
2019-04-06T15:11:33.568Z,99951.45
2019-04-06T15:13:48.838Z,99954.58
2019-04-06T15:16:14.456Z,99950.03
2019-04-06T15:18:50.101Z,99950.81
2019-04-06T15:21:19.928Z,99940.86
2019-04-06T15:23:41.028Z,99947.61
2019-04-06T15:26:03.536Z,99941.23
2019-04-06T15:28:28.838Z,99949.56
2019-04-06T15:31:01.015Z,99950.28
2019-04-06T15:33:26.605Z,99946.46
2019-04-06T15:35:52.863Z,99953.45
2019-04-06T15:38:34.333Z,99948.13
2019-04-06T15:41:03.741Z,99953.12
2019-04-06T15:43:37.608Z,99945.92
2019-04-06T15:46:09.782Z,99945.33
2019-04-06T15:48:45.419Z,99944.61
2019-04-06T15:51:20.947Z,99938.99
2019-04-06T15:53:34.342Z,99947.25
2019-04-06T15:55:57.245Z,99948.92
2019-04-06T15:58:26.519Z,99946.32
2019-04-06T16:01:01.822Z,99951.31
2019-04-06T16:03:19.445Z,99947.23
2019-04-06T16:05:44.862Z,99949.39
2019-04-06T16:08:26.249Z,99947.98
2019-04-06T16:10:55.331Z,99956.67
2019-04-06T16:13:21.948Z,99954.91
2019-04-06T16:15:40.743Z,99955.67
2019-04-06T16:18:22.261Z,99963.75
2019-04-06T16:20:35.823Z,99971.89
2019-04-06T16:23:04.987Z,99963.58
2019-04-06T16:25:25.913Z,99970.15
2019-04-06T16:27:52.954Z,99962.30
2019-04-06T16:30:18.534Z,99970.87
2019-04-06T16:33:00.323Z,99970.30
2019-04-06T16:35:17.225Z,99979.72
2019-04-06T16:37:52.819Z,99975.88
2019-04-06T16:40:25.403Z,99977.81
2019-04-06T16:43:01.167Z,99978.79
2019-04-06T16:45:31.022Z,99975.17
2019-04-06T16:47:56.507Z,99980.26
2019-04-06T16:50:14.750Z,99979.89
2019-04-06T16:52:42.410Z,99976.14
2019-04-06T16:55:07.774Z,99980.16
2019-04-06T16:57:30.286Z,99974.34
2019-04-06T16:59:48.731Z,99981.84
2019-04-06T17:02:25.539Z,99978.93
2019-04-06T17:04:42.804Z,99974.45
2019-04-06T17:07:03.426Z,99975.31
2019-04-06T17:09:18.798Z,99971.95
2019-04-06T17:12:00.481Z,99968.88
2019-04-06T17:14:22.594Z,99980.58
2019-04-06T17:16:48.026Z,99971.63
2019-04-06T17:19:15.858Z,99973.20
2019-04-06T17:21:32.145Z,99978.27
2019-04-06T17:23:57.330Z,99975.38
2019-04-06T17:26:30.008Z,99976.67
2019-04-06T17:28:56.144Z,99970.77
2019-04-06T17:31:37.617Z,99972.67
2019-04-06T17:34:19.273Z,99965.06
2019-04-06T17:36:49.175Z,99972.54
2019-04-06T17:39:15.093Z,99977.92
2019-04-06T17:41:38.729Z,99977.33
2019-04-06T17:44:17.295Z,99973.48
2019-04-06T17:46:42.531Z,99982.50
2019-04-06T17:49:09.331Z,99977.55
2019-04-06T17:51:47.786Z,99981.59
2019-04-06T17:54:23.136Z,99979.91
2019-04-06T17:56:58.623Z,99978.09
2019-04-06T17:59:24.943Z,99985.17
2019-04-06T18:02:03.464Z,99986.60
2019-04-06T18:04:41.984Z,99984.29
2019-04-06T18:07:23.974Z,99989.24
2019-04-06T18:09:53.469Z,99996.67
2019-04-06T18:12:20.838Z,99988.47
2019-04-06T18:14:28.453Z,99987.67
2019-04-06T18:16:37.617Z,99994.66
2019-04-06T18:18:45.643Z,99996.84
2019-04-06T18:20:53.248Z,99996.87
2019-04-06T18:25:16.787Z,99989.59
2019-04-06T18:27:24.284Z,99994.30
2019-04-06T18:29:35.419Z,99984.38
2019-04-06T18:31:52.750Z,99990.66
2019-04-06T18:34:00.464Z,99985.06
2019-04-06T18:36:08.631Z,99989.02
2019-04-06T18:38:24.194Z,99984.56
2019-04-06T18:40:31.804Z,99984.15
2019-04-06T18:42:39.948Z,99992.30
2019-04-06T18:44:47.554Z,99989.14
2019-04-06T18:46:55.245Z,99980.81
2019-04-06T18:49:03.253Z,99984.95
2019-04-06T18:51:11.250Z,99983.93
2019-04-06T18:53:19.367Z,99978.80
2019-04-06T18:55:27.179Z,99982.38
2019-04-06T18:57:34.740Z,99982.67
2019-04-06T18:59:42.680Z,99985.83
2019-04-06T19:01:50.795Z,99980.26
2019-04-06T19:03:58.354Z,99980.36
2019-04-06T19:06:06.113Z,99981.20
2019-04-06T19:08:14.264Z,99976.97
2019-04-06T19:10:22.047Z,99980.06
2019-04-06T19:12:29.468Z,99968.24
2019-04-06T19:14:37.224Z,99971.89
2019-04-06T19:16:44.909Z,99970.30
2019-04-06T19:18:53.154Z,99964.14
2019-04-06T19:21:00.758Z,99969.72
2019-04-06T19:23:08.426Z,99959.39
2019-04-06T19:25:16.178Z,99959.02
2019-04-06T19:27:23.818Z,99959.15
2019-04-06T19:29:31.768Z,99955.02
2019-04-06T19:31:39.375Z,99954.58
2019-04-06T19:33:47.042Z,99959.42
2019-04-06T19:35:55.106Z,99952.45
2019-04-06T19:38:03.085Z,99952.12
2019-04-06T19:40:11.720Z,99945.20
2019-04-06T19:42:19.373Z,99947.27
2019-04-06T19:44:27.205Z,99929.19
2019-04-06T19:46:35.175Z,99937.70
2019-04-06T19:48:43.665Z,99938.57
2019-04-06T19:50:51.620Z,99930.61
2019-04-06T19:53:00.090Z,99938.45
2019-04-06T19:55:08.985Z,99940.22
2019-04-06T19:57:16.613Z,99930.78
2019-04-06T19:59:24.222Z,99925.86
2019-04-06T20:01:32.021Z,99931.50
2019-04-06T20:03:40.017Z,99929.69
2019-04-06T20:05:47.570Z,99927.89
2019-04-06T20:07:55.717Z,99925.64
2019-04-06T20:10:03.558Z,99920.94
2019-04-06T20:12:11.501Z,99916.41
2019-04-06T20:14:19.083Z,99920.58
2019-04-06T20:16:27.514Z,99916.74
2019-04-06T20:18:35.058Z,99916.66
2019-04-06T20:20:43.065Z,99912.19
2019-04-06T20:22:50.615Z,99905.41
2019-04-06T20:24:58.212Z,99903.48
2019-04-06T20:27:05.930Z,99903.81
2019-04-06T20:29:13.902Z,99901.30
2019-04-06T20:31:21.572Z,99895.17
2019-04-06T20:33:29.563Z,99896.61
2019-04-06T20:35:37.292Z,99893.89
2019-04-06T20:37:45.126Z,99890.55
2019-04-06T20:39:52.755Z,99892.78
2019-04-06T20:42:00.884Z,99893.92
2019-04-06T20:44:09.153Z,99893.80
2019-04-06T20:46:19.668Z,99891.06
2019-04-06T20:48:25.953Z,99879.94
2019-04-06T20:50:33.391Z,99882.82
2019-04-06T20:52:40.990Z,99885.52
2019-04-06T20:54:48.543Z,99880.89
2019-04-06T20:56:58.069Z,99881.52
2019-04-06T20:59:05.252Z,99877.45
2019-04-06T21:01:13.032Z,99879.00
2019-04-06T21:03:20.591Z,99871.12
2019-04-06T21:05:28.159Z,99873.09
2019-04-06T21:07:35.703Z,99884.47
2019-04-06T21:09:46.034Z,99877.59
2019-04-06T21:11:53.701Z,99876.94
2019-04-06T21:14:01.174Z,99876.28
2019-04-06T21:16:08.597Z,99878.11
2019-04-06T21:18:16.560Z,99872.97
2019-04-06T21:20:24.180Z,99875.10
2019-04-06T21:22:31.698Z,99875.47
2019-04-06T21:24:39.452Z,99877.15
2019-04-06T21:26:47.131Z,99880.66
2019-04-06T21:28:54.717Z,99879.87
2019-04-06T21:31:02.320Z,99874.72
2019-04-06T21:33:09.919Z,99873.39
2019-04-06T21:35:17.992Z,99880.56
2019-04-06T21:37:25.752Z,99866.28
2019-04-06T21:39:33.438Z,99869.84
2019-04-06T21:41:40.952Z,99869.58
2019-04-06T21:43:49.426Z,99875.51
2019-04-06T21:45:57.586Z,99869.30
2019-04-06T21:48:05.837Z,99873.16
2019-04-06T21:50:13.955Z,99864.61
2019-04-06T21:52:21.435Z,99869.89
2019-04-06T21:54:29.481Z,99865.91
2019-04-06T21:56:37.470Z,99862.14
2019-04-06T21:58:44.988Z,99862.31
2019-04-06T22:00:55.369Z,99865.84
2019-04-06T22:03:04.392Z,99856.33
2019-04-06T22:05:12.365Z,99858.21
2019-04-06T22:07:20.640Z,99852.39
2019-04-06T22:09:28.777Z,99850.02
2019-04-06T22:11:37.087Z,99847.95
2019-04-06T22:13:45.210Z,99851.24
2019-04-06T22:15:53.914Z,99840.84
2019-04-06T22:18:01.369Z,99844.86
2019-04-06T22:20:09.536Z,99850.48
2019-04-06T22:22:17.145Z,99846.80
2019-04-06T22:24:25.018Z,99845.91
2019-04-06T22:26:32.837Z,99847.98
2019-04-06T22:28:40.316Z,99845.14
2019-04-06T22:30:47.760Z,99841.22
2019-04-06T22:32:55.157Z,99842.31
2019-04-06T22:35:02.650Z,99838.70
2019-04-06T22:37:10.118Z,99843.00
2019-04-06T22:39:17.744Z,99838.84
2019-04-06T22:41:25.228Z,99836.83
2019-04-06T22:43:32.820Z,99833.83
2019-04-06T22:45:41.452Z,99833.68
2019-04-06T22:47:49.493Z,99836.88
2019-04-06T22:49:56.941Z,99830.84
2019-04-06T22:52:04.380Z,99830.20
2019-04-06T22:54:11.837Z,99830.97
2019-04-06T22:56:19.272Z,99832.26
2019-04-06T22:58:26.631Z,99834.28
2019-04-06T23:00:50.261Z,99830.78
2019-04-06T23:03:10.578Z,99828.17
2019-04-06T23:05:26.886Z,99825.04
2019-04-06T23:07:34.820Z,99820.88
2019-04-06T23:09:42.872Z,99818.09
2019-04-06T23:11:50.417Z,99819.80
2019-04-06T23:13:57.842Z,99821.11
2019-04-06T23:16:05.864Z,99825.56
2019-04-06T23:18:13.945Z,99824.88
2019-04-06T23:20:21.834Z,99820.53
2019-04-06T23:22:29.525Z,99822.79
2019-04-06T23:24:38.587Z,99814.98
2019-04-06T23:26:46.561Z,99817.20
2019-04-06T23:28:54.021Z,99817.89
2019-04-06T23:31:01.686Z,99817.00
2019-04-06T23:33:09.440Z,99808.87
2019-04-06T23:35:16.903Z,99808.94
2019-04-06T23:37:24.333Z,99813.13
2019-04-06T23:39:32.107Z,99812.61
2019-04-06T23:41:39.611Z,99804.80
2019-04-06T23:43:47.082Z,99810.45
2019-04-06T23:45:54.880Z,99805.47
2019-04-06T23:48:03.044Z,99804.98
2019-04-06T23:50:11.101Z,99796.40
2019-04-06T23:52:19.512Z,99801.58
2019-04-06T23:54:26.939Z,99803.73
2019-04-06T23:56:35.059Z,99802.56
2019-04-06T23:58:43.114Z,99799.12
